createdAt,value
2023-04-12T00:02:13.121Z,5.85
2023-04-12T00:04:40.426Z,5.60
2023-04-12T00:07:10.028Z,6.70
2023-04-12T00:09:38.055Z,6.15
2023-04-12T00:12:06.379Z,5.80
2023-04-12T00:14:34.809Z,6.28
2023-04-12T00:17:01.777Z,6.40
2023-04-12T00:19:31.089Z,5.95
2023-04-12T00:21:58.613Z,6.18
2023-04-12T00:24:26.337Z,6.00
2023-04-12T00:26:53.386Z,5.70
2023-04-12T00:29:21.369Z,6.63
2023-04-12T00:31:50.012Z,6.75
2023-04-12T00:34:17.381Z,6.82
2023-04-12T00:36:44.348Z,7.63
2023-04-12T00:39:11.305Z,6.25
2023-04-12T00:41:38.266Z,6.25
2023-04-12T00:44:05.719Z,7.03
2023-04-12T00:46:33.036Z,7.00
2023-04-12T00:49:02.944Z,7.57
2023-04-12T00:51:33.500Z,6.50
2023-04-12T00:54:01.656Z,6.97
2023-04-12T00:56:31.771Z,6.78
2023-04-12T00:58:58.951Z,6.45
2023-04-12T01:01:26.106Z,6.35
2023-04-12T01:03:53.751Z,6.43
2023-04-12T01:06:29.892Z,6.30
2023-04-12T01:09:02.296Z,7.22
2023-04-12T01:11:32.482Z,6.80
2023-04-12T01:14:07.503Z,5.97
2023-04-12T01:16:41.069Z,6.20
2023-04-12T01:19:22.842Z,6.70
2023-04-12T01:22:02.722Z,6.70
2023-04-12T01:24:38.936Z,6.45
2023-04-12T01:27:16.337Z,6.00
2023-04-12T01:29:49.958Z,6.43
2023-04-12T01:32:18.413Z,6.38
2023-04-12T01:34:45.883Z,6.90
2023-04-12T01:37:16.415Z,6.53
2023-04-12T01:39:43.574Z,6.75
2023-04-12T01:42:10.689Z,6.57
2023-04-12T01:44:37.996Z,6.15
2023-04-12T01:47:07.275Z,6.38
2023-04-12T01:49:44.247Z,6.63
2023-04-12T01:52:13.431Z,7.50
2023-04-12T01:54:43.102Z,6.50
2023-04-12T01:57:10.817Z,6.68
2023-04-12T01:59:40.180Z,6.93
2023-04-12T02:02:09.559Z,7.13
2023-04-12T02:04:37.564Z,6.55
2023-04-12T02:07:04.600Z,6.68
2023-04-12T02:09:36.680Z,7.35
2023-04-12T02:12:04.941Z,7.43
2023-04-12T02:14:31.880Z,6.47
2023-04-12T02:16:59.842Z,7.57
2023-04-12T02:19:28.707Z,7.32
2023-04-12T02:21:55.789Z,6.72
2023-04-12T02:24:22.728Z,6.75
2023-04-12T02:26:52.346Z,6.93
2023-04-12T02:29:19.676Z,6.85
2023-04-12T02:34:18.052Z,7.70
2023-04-12T02:36:52.023Z,7.18
2023-04-12T02:39:19.171Z,5.95
2023-04-12T02:41:48.400Z,7.35
2023-04-12T02:44:16.432Z,7.28
2023-04-12T02:46:49.992Z,7.30
2023-04-12T02:49:16.965Z,6.93
2023-04-12T02:51:44.412Z,6.07
2023-04-12T02:54:14.185Z,5.90
2023-04-12T02:56:51.878Z,6.38
2023-04-12T02:59:34.089Z,5.80
2023-04-12T03:02:11.885Z,7.05
2023-04-12T03:04:40.156Z,7.20
2023-04-12T03:07:12.352Z,6.63
2023-04-12T03:09:47.807Z,7.63
2023-04-12T03:12:16.524Z,8.23
2023-04-12T03:14:54.194Z,7.95
2023-04-12T03:17:24.773Z,8.73
2023-04-12T03:19:53.855Z,8.30
2023-04-12T03:22:23.009Z,7.53
2023-04-12T03:24:55.433Z,8.98
2023-04-12T03:27:22.921Z,9.07
2023-04-12T03:29:52.471Z,9.07
2023-04-12T03:32:22.114Z,11.30
2023-04-12T03:34:49.236Z,8.82
2023-04-12T03:37:20.081Z,8.00
2023-04-12T03:39:48.432Z,9.13
2023-04-12T03:42:32.338Z,8.35
2023-04-12T03:45:11.047Z,8.25
2023-04-12T03:47:41.115Z,8.02
2023-04-12T03:50:12.368Z,7.88
2023-04-12T03:52:45.726Z,8.43
2023-04-12T03:55:13.680Z,8.93
2023-04-12T04:00:11.631Z,7.93
2023-04-12T04:03:17.543Z,8.70
2023-04-12T04:05:51.239Z,8.95
2023-04-12T04:08:21.053Z,9.70
2023-04-12T04:10:52.267Z,8.90
2023-04-12T04:13:23.185Z,9.63
2023-04-12T04:15:59.871Z,8.07
2023-04-12T04:18:28.319Z,8.30
2023-04-12T04:20:55.743Z,8.18
2023-04-12T04:23:23.493Z,8.20
2023-04-12T04:25:53.430Z,8.85
2023-04-12T04:28:21.328Z,8.55
2023-04-12T04:30:51.761Z,8.60
2023-04-12T04:33:20.126Z,8.40
2023-04-12T04:36:06.535Z,8.05
2023-04-12T04:38:35.279Z,8.43
2023-04-12T04:41:09.340Z,7.38
2023-04-12T04:43:51.828Z,7.47
2023-04-12T04:46:23.778Z,6.60
2023-04-12T04:48:51.862Z,6.78
2023-04-12T04:51:18.899Z,6.88
2023-04-12T04:53:46.643Z,5.90
2023-04-12T04:56:15.658Z,6.10
2023-04-12T04:58:44.145Z,5.20
2023-04-12T05:01:13.643Z,5.68
2023-04-12T05:03:45.149Z,5.63
2023-04-12T05:06:13.666Z,5.47
2023-04-12T05:08:41.245Z,4.68
2023-04-12T05:11:09.004Z,4.93
2023-04-12T05:13:36.313Z,5.47
2023-04-12T05:16:08.095Z,4.47
2023-04-12T05:18:35.182Z,4.07
2023-04-12T05:21:04.274Z,4.15
2023-04-12T05:23:34.988Z,4.00
2023-04-12T05:26:02.222Z,4.10
2023-04-12T05:28:29.560Z,3.80
2023-04-12T05:30:56.648Z,4.03
2023-04-12T05:33:33.339Z,4.32
2023-04-12T05:36:03.833Z,4.03
2023-04-12T05:38:31.723Z,3.58
2023-04-12T05:41:04.851Z,3.97
2023-04-12T05:43:33.316Z,4.20
2023-04-12T05:46:00.400Z,3.78
2023-04-12T05:48:27.639Z,3.00
2023-04-12T05:50:57.066Z,3.20
2023-04-12T05:53:25.494Z,3.50
2023-04-12T05:55:54.405Z,2.90
2023-04-12T05:58:22.365Z,2.45
2023-04-12T06:00:55.400Z,2.70
2023-04-12T06:03:24.078Z,2.38
2023-04-12T06:05:53.365Z,2.33
2023-04-12T06:08:20.420Z,2.55
2023-04-12T06:10:48.824Z,2.50
2023-04-12T06:13:16.502Z,2.80
2023-04-12T06:15:43.787Z,2.00
2023-04-12T06:18:13.055Z,2.55
2023-04-12T06:23:07.883Z,2.28
2023-04-12T06:25:35.672Z,3.10
2023-04-12T06:30:36.760Z,2.90
2023-04-12T06:33:03.921Z,2.75
2023-04-12T06:35:32.044Z,2.78
2023-04-12T06:37:59.244Z,3.05
2023-04-12T06:40:26.339Z,2.75
2023-04-12T06:42:53.360Z,2.47
2023-04-12T06:45:24.713Z,2.53
2023-04-12T06:47:51.744Z,2.78
2023-04-12T06:50:18.790Z,2.50
2023-04-12T06:52:46.947Z,3.22
2023-04-12T06:55:14.151Z,2.50
2023-04-12T06:57:41.950Z,2.65
2023-04-12T07:00:10.084Z,2.15
2023-04-12T07:02:39.215Z,2.88
2023-04-12T07:05:06.900Z,2.45
2023-04-12T07:07:33.854Z,1.80
2023-04-12T07:10:00.943Z,1.92
2023-04-12T07:12:27.943Z,2.05
2023-04-12T07:14:54.892Z,2.28
2023-04-12T07:17:21.900Z,2.95
2023-04-12T07:19:52.243Z,2.08
2023-04-12T07:22:19.149Z,2.85
2023-04-12T07:24:46.085Z,3.08
2023-04-12T07:27:13.065Z,2.80
2023-04-12T07:29:40.053Z,3.40
2023-04-12T07:32:07.799Z,2.67
2023-04-12T07:34:34.885Z,2.85
2023-04-12T07:37:03.591Z,3.33
2023-04-12T07:39:31.857Z,3.00
2023-04-12T07:41:58.890Z,2.90
2023-04-12T07:44:26.096Z,3.67
2023-04-12T07:46:53.075Z,2.28
2023-04-12T07:49:20.146Z,2.75
2023-04-12T07:51:47.531Z,1.77
2023-04-12T07:54:15.981Z,2.60
2023-04-12T07:59:09.731Z,2.17
2023-04-12T08:01:37.076Z,2.13
2023-04-12T08:04:04.322Z,2.45
2023-04-12T08:06:33.628Z,2.17
2023-04-12T08:09:01.428Z,2.42
2023-04-12T08:11:29.825Z,2.28
2023-04-12T08:16:23.944Z,1.77
2023-04-12T08:18:51.064Z,1.40
2023-04-12T08:21:18.080Z,1.65
2023-04-12T08:23:45.105Z,1.45
2023-04-12T08:26:12.093Z,1.70
2023-04-12T08:28:40.833Z,1.40
2023-04-12T08:31:08.676Z,1.70
2023-04-12T08:33:35.869Z,2.13
2023-04-12T08:36:02.977Z,1.63
2023-04-12T08:38:43.975Z,1.90
2023-04-12T08:41:12.756Z,1.23
2023-04-12T08:43:44.356Z,1.20
2023-04-12T08:46:15.738Z,1.20
2023-04-12T08:48:45.638Z,0.82
2023-04-12T08:51:14.173Z,1.30
2023-04-12T08:53:41.117Z,1.17
2023-04-12T08:56:11.311Z,1.38
2023-04-12T08:58:39.368Z,1.30
2023-04-12T09:01:14.140Z,1.17
2023-04-12T09:03:42.149Z,1.00
2023-04-12T09:06:09.821Z,1.23
2023-04-12T09:08:36.992Z,1.45
2023-04-12T09:11:21.710Z,0.95
2023-04-12T09:13:48.766Z,1.50
2023-04-12T09:16:17.358Z,1.33
2023-04-12T09:18:48.446Z,1.30
2023-04-12T09:21:15.469Z,1.30
2023-04-12T09:23:42.756Z,1.08
2023-04-12T09:26:11.019Z,1.02
2023-04-12T09:28:37.967Z,1.08
2023-04-12T09:31:05.569Z,1.23
2023-04-12T09:33:37.853Z,1.10
2023-04-12T09:36:06.389Z,0.80
2023-04-12T09:38:34.577Z,1.35
2023-04-12T09:41:18.144Z,1.20
2023-04-12T09:43:46.839Z,1.10
2023-04-12T09:46:14.776Z,0.98
2023-04-12T09:48:50.018Z,1.00
2023-04-12T09:51:24.368Z,0.90
2023-04-12T09:53:51.864Z,1.02
2023-04-12T09:56:19.534Z,0.70
2023-04-12T09:58:47.314Z,1.20
2023-04-12T10:01:15.859Z,0.85
2023-04-12T10:03:45.977Z,1.02
2023-04-12T10:06:13.735Z,1.13
2023-04-12T10:08:41.008Z,0.90
2023-04-12T10:11:09.311Z,0.70
2023-04-12T10:13:38.118Z,0.60
2023-04-12T10:16:06.455Z,0.60
2023-04-12T10:18:37.284Z,0.60
2023-04-12T10:21:07.266Z,0.32
2023-04-12T10:23:34.701Z,0.70
2023-04-12T10:26:04.745Z,0.57
2023-04-12T10:28:34.178Z,0.57
2023-04-12T10:31:27.104Z,0.60
2023-04-12T10:33:56.111Z,0.50
2023-04-12T10:36:53.528Z,0.50
2023-04-12T10:39:37.817Z,0.25
2023-04-12T10:42:25.293Z,0.93
2023-04-12T10:44:53.883Z,0.65
2023-04-12T10:48:02.043Z,0.50
2023-04-12T10:50:33.983Z,0.55
2023-04-12T10:53:23.019Z,0.60
2023-04-12T10:55:50.161Z,0.60
2023-04-12T10:59:01.106Z,0.60
2023-04-12T11:01:32.980Z,0.43
2023-04-12T11:04:13.846Z,0.60
2023-04-12T11:06:52.400Z,0.70
2023-04-12T11:09:57.483Z,0.88
2023-04-12T11:12:43.072Z,0.40
2023-04-12T11:15:13.348Z,0.63
2023-04-12T11:17:54.394Z,0.73
2023-04-12T11:20:21.571Z,0.47
2023-04-12T11:22:51.330Z,0.55
2023-04-12T11:25:18.315Z,0.60
2023-04-12T11:27:49.537Z,0.47
2023-04-12T11:30:17.244Z,0.30
2023-04-12T11:32:45.558Z,0.60
2023-04-12T11:35:14.835Z,0.50
2023-04-12T11:37:41.810Z,0.38
2023-04-12T11:40:11.052Z,0.50
2023-04-12T11:42:39.974Z,0.47
2023-04-12T11:45:15.716Z,0.82
2023-04-12T11:47:45.737Z,0.40
2023-04-12T11:50:12.797Z,0.30
2023-04-12T11:52:41.313Z,0.60
2023-04-12T11:55:11.413Z,0.52
2023-04-12T11:57:39.271Z,0.40
2023-04-12T12:00:07.490Z,0.40
2023-04-12T12:02:46.584Z,0.47
2023-04-12T12:05:20.502Z,0.60
2023-04-12T12:10:27.591Z,0.38
2023-04-12T12:13:03.181Z,0.60
2023-04-12T12:15:31.200Z,0.60
2023-04-12T12:17:58.461Z,0.30
2023-04-12T12:20:27.567Z,0.65
2023-04-12T12:22:54.558Z,0.45
2023-04-12T12:25:23.408Z,0.47
2023-04-12T12:27:57.253Z,0.38
2023-04-12T12:30:24.392Z,0.40
2023-04-12T12:32:54.594Z,0.40
2023-04-12T12:35:21.588Z,0.55
2023-04-12T12:37:49.951Z,0.43
2023-04-12T12:40:17.849Z,0.50
2023-04-12T12:42:47.547Z,0.30
2023-04-12T12:45:14.984Z,0.40
2023-04-12T12:47:50.924Z,0.47
2023-04-12T12:50:18.399Z,1.08
2023-04-12T12:52:46.434Z,0.28
2023-04-12T12:55:13.753Z,0.55
2023-04-12T12:57:42.003Z,0.52
2023-04-12T13:00:13.140Z,0.30
2023-04-12T13:02:40.287Z,0.50
2023-04-12T13:05:11.456Z,0.85
2023-04-12T13:07:39.283Z,0.28
2023-04-12T13:10:07.514Z,0.70
2023-04-12T13:12:34.676Z,0.75
2023-04-12T13:15:13.443Z,0.45
2023-04-12T13:17:49.198Z,0.40
2023-04-12T13:20:16.586Z,0.52
2023-04-12T13:22:43.525Z,0.50
2023-04-12T13:25:11.857Z,0.55
2023-04-12T13:27:38.850Z,0.47
2023-04-12T13:30:07.194Z,0.40
2023-04-12T13:32:34.253Z,0.52
2023-04-12T13:35:03.379Z,0.35
2023-04-12T13:37:30.388Z,0.52
2023-04-12T13:39:57.315Z,0.60
2023-04-12T13:42:24.526Z,0.50
2023-04-12T13:44:51.476Z,0.43
2023-04-12T13:47:18.708Z,0.22
2023-04-12T13:49:45.688Z,0.57
2023-04-12T13:52:14.084Z,0.80
2023-04-12T13:54:41.265Z,0.50
2023-04-12T13:57:08.235Z,0.73
2023-04-12T13:59:35.440Z,0.50
2023-04-12T14:02:02.677Z,0.40
2023-04-12T14:04:30.984Z,0.30
2023-04-12T14:06:58.893Z,0.50
2023-04-12T14:09:28.415Z,0.57
2023-04-12T14:11:56.405Z,0.30
2023-04-12T14:16:52.208Z,0.22
2023-04-12T14:19:19.373Z,0.30
2023-04-12T14:21:47.713Z,0.52
2023-04-12T14:24:14.847Z,0.77
2023-04-12T14:26:43.708Z,0.93
2023-04-12T14:29:11.100Z,0.57
2023-04-12T14:31:39.732Z,0.40
2023-04-12T14:34:08.736Z,0.30
2023-04-12T14:36:36.005Z,0.40
2023-04-12T14:39:04.177Z,0.43
2023-04-12T14:41:31.616Z,0.57
2023-04-12T14:44:01.241Z,0.50
2023-04-12T14:46:28.655Z,0.50
2023-04-12T14:48:57.356Z,0.50
2023-04-12T14:51:24.540Z,0.40
2023-04-12T14:53:51.492Z,0.22
2023-04-12T14:56:23.826Z,0.40
2023-04-12T14:58:53.754Z,1.00
2023-04-12T15:01:23.531Z,0.30
2023-04-12T15:03:52.065Z,0.40
2023-04-12T15:06:19.366Z,0.50
2023-04-12T15:08:46.761Z,0.50
2023-04-12T15:11:14.027Z,1.00
2023-04-12T15:13:41.582Z,0.50
2023-04-12T15:16:09.393Z,0.32
2023-04-12T15:18:38.205Z,0.60
2023-04-12T15:21:08.278Z,0.60
2023-04-12T15:23:35.759Z,0.40
2023-04-12T15:26:03.254Z,0.50
2023-04-12T15:28:32.760Z,0.60
2023-04-12T15:30:59.826Z,0.50
2023-04-12T15:33:26.879Z,0.38
2023-04-12T15:35:58.193Z,0.38
2023-04-12T15:38:25.945Z,0.35
2023-04-12T15:40:55.314Z,0.68
2023-04-12T15:43:23.189Z,0.17
2023-04-12T15:45:53.184Z,0.55
2023-04-12T15:48:20.759Z,0.40
2023-04-12T15:50:48.885Z,0.60
2023-04-12T15:53:19.264Z,0.60
2023-04-12T15:55:47.238Z,0.73
2023-04-12T15:58:14.764Z,0.40
2023-04-12T16:00:42.441Z,0.52
2023-04-12T16:03:09.941Z,0.73
2023-04-12T16:05:37.161Z,0.40
2023-04-12T16:08:04.297Z,0.52
2023-04-12T16:10:33.418Z,0.45
2023-04-12T16:13:00.501Z,0.50
2023-04-12T16:15:27.561Z,0.60
2023-04-12T16:17:56.161Z,0.52
2023-04-12T16:20:24.023Z,1.02
2023-04-12T16:22:56.721Z,1.00
2023-04-12T16:25:25.159Z,0.50
2023-04-12T16:27:53.688Z,0.68
2023-04-12T16:30:22.509Z,0.43
2023-04-12T16:32:51.196Z,1.00
2023-04-12T16:35:18.608Z,0.52
2023-04-12T16:37:46.231Z,0.90
2023-04-12T16:40:13.412Z,0.60
2023-04-12T16:42:41.003Z,0.77
2023-04-12T16:45:10.530Z,0.45
2023-04-12T16:47:38.001Z,0.65
2023-04-12T16:50:08.629Z,1.90
2023-04-12T16:52:36.934Z,1.05
2023-04-12T16:55:04.740Z,0.90
2023-04-12T16:57:32.901Z,0.75
2023-04-12T17:00:00.702Z,0.93
2023-04-12T17:02:29.201Z,0.85
2023-04-12T17:04:56.400Z,0.98
2023-04-12T17:07:23.867Z,0.75
2023-04-12T17:09:50.819Z,1.23
2023-04-12T17:12:17.884Z,0.88
2023-04-12T17:14:45.614Z,0.93
2023-04-12T17:17:12.714Z,1.15
2023-04-12T17:19:43.425Z,1.25
2023-04-12T17:22:10.646Z,0.75
2023-04-12T17:24:38.227Z,0.70
2023-04-12T17:27:05.464Z,1.08
2023-04-12T17:29:33.496Z,1.42
2023-04-12T17:32:00.783Z,1.00
2023-04-12T17:34:27.791Z,1.20
2023-04-12T17:36:56.179Z,1.33
2023-04-12T17:39:23.052Z,1.10
2023-04-12T17:41:50.021Z,0.70
2023-04-12T17:44:17.060Z,1.02
2023-04-12T17:46:44.368Z,1.38
2023-04-12T17:49:11.583Z,1.00
2023-04-12T17:51:38.544Z,1.10
2023-04-12T17:54:06.944Z,1.02
2023-04-12T17:56:33.895Z,0.77
2023-04-12T17:59:02.181Z,0.82
2023-04-12T18:01:29.427Z,0.90
2023-04-12T18:03:57.577Z,0.75
2023-04-12T18:06:24.759Z,0.93
2023-04-12T18:08:52.710Z,0.90
2023-04-12T18:11:21.095Z,0.80
2023-04-12T18:13:48.131Z,1.17
2023-04-12T18:16:15.486Z,1.02
2023-04-12T18:18:42.575Z,0.80
2023-04-12T18:21:09.557Z,1.38
2023-04-12T18:23:36.553Z,1.08
2023-04-12T18:26:05.299Z,1.25
2023-04-12T18:28:33.625Z,0.80
2023-04-12T18:31:02.336Z,1.02
2023-04-12T18:33:31.397Z,1.50
2023-04-12T18:35:58.487Z,0.80
2023-04-12T18:38:25.584Z,1.02
2023-04-12T18:40:52.569Z,1.35
2023-04-12T18:43:19.627Z,1.75
2023-04-12T18:45:48.407Z,1.20
2023-04-12T18:48:15.811Z,0.90
2023-04-12T18:50:43.415Z,0.85
2023-04-12T18:53:10.746Z,0.75
2023-04-12T18:55:37.889Z,1.23
2023-04-12T18:58:04.955Z,0.82
2023-04-12T19:00:32.905Z,1.00
2023-04-12T19:03:01.687Z,1.23
2023-04-12T19:05:28.881Z,0.95
2023-04-12T19:07:56.273Z,1.42
2023-04-12T19:10:28.254Z,1.35
2023-04-12T19:12:55.630Z,1.25
2023-04-12T19:15:22.733Z,1.33
2023-04-12T19:17:50.035Z,1.30
2023-04-12T19:20:18.693Z,1.17
2023-04-12T19:22:45.731Z,1.35
2023-04-12T19:25:13.396Z,1.20
2023-04-12T19:27:40.415Z,1.20
2023-04-12T19:30:11.062Z,1.75
2023-04-12T19:32:38.126Z,1.35
2023-04-12T19:35:07.542Z,1.50
2023-04-12T19:37:36.199Z,1.45
2023-04-12T19:40:03.582Z,1.58
2023-04-12T19:42:30.639Z,1.65
2023-04-12T19:44:57.620Z,1.77
2023-04-12T19:47:25.916Z,1.20
2023-04-12T19:49:53.149Z,0.88
2023-04-12T19:52:21.948Z,1.00
2023-04-12T19:54:52.585Z,1.77
2023-04-12T19:57:19.560Z,1.20
2023-04-12T19:59:46.552Z,1.38
2023-04-12T20:02:13.664Z,1.10
2023-04-12T20:04:40.894Z,1.17
2023-04-12T20:07:07.858Z,1.63
2023-04-12T20:09:36.032Z,1.45
2023-04-12T20:12:07.263Z,1.52
2023-04-12T20:14:36.920Z,2.00
2023-04-12T20:17:06.158Z,1.38
2023-04-12T20:19:33.213Z,1.45
2023-04-12T20:22:03.831Z,1.17
2023-04-12T20:24:34.580Z,1.50
2023-04-12T20:27:02.267Z,1.40
2023-04-12T20:29:31.913Z,1.45
2023-04-12T20:31:58.921Z,1.33
2023-04-12T20:34:26.889Z,1.20
2023-04-12T20:36:55.168Z,1.15
2023-04-12T20:39:22.499Z,1.30
2023-04-12T20:41:50.981Z,1.23
2023-04-12T20:44:19.155Z,1.10
2023-04-12T20:46:47.630Z,1.67
2023-04-12T20:51:41.816Z,1.02
2023-04-12T20:54:09.608Z,1.30
2023-04-12T20:56:36.566Z,1.42
2023-04-12T20:59:03.532Z,0.90
2023-04-12T21:04:17.312Z,1.50
2023-04-12T21:06:45.203Z,0.82
2023-04-12T21:09:12.119Z,1.08
2023-04-12T21:11:41.167Z,1.08
2023-04-12T21:14:11.190Z,1.08
2023-04-12T21:16:38.751Z,1.15
2023-04-12T21:19:05.940Z,1.45
2023-04-12T21:21:34.375Z,1.23
2023-04-12T21:24:01.819Z,1.00
2023-04-12T21:26:28.845Z,1.27
2023-04-12T21:28:56.245Z,1.20
2023-04-12T21:31:23.819Z,1.30
2023-04-12T21:33:50.949Z,1.10
2023-04-12T21:36:18.002Z,1.23
2023-04-12T21:38:46.762Z,1.23
2023-04-12T21:43:40.893Z,1.10
2023-04-12T21:46:08.152Z,1.05
2023-04-12T21:48:35.393Z,1.27
2023-04-12T21:51:02.822Z,1.35
2023-04-12T21:53:29.788Z,1.55
2023-04-12T21:55:59.053Z,1.65
2023-04-12T21:58:26.007Z,2.13
2023-04-12T22:00:53.466Z,1.33
2023-04-12T22:03:20.641Z,1.40
2023-04-12T22:06:00.864Z,1.10
2023-04-12T22:08:30.352Z,1.73
2023-04-12T22:10:59.180Z,1.10
2023-04-12T22:13:26.096Z,1.20
2023-04-12T22:15:53.032Z,1.23
2023-04-12T22:18:20.546Z,1.50
2023-04-12T22:20:48.103Z,1.27
2023-04-12T22:23:18.157Z,1.58
2023-04-12T22:25:46.100Z,1.38
2023-04-12T22:28:17.128Z,0.88
2023-04-12T22:30:44.173Z,0.90
2023-04-12T22:33:13.768Z,1.05
2023-04-12T22:35:40.891Z,1.33
2023-04-12T22:38:08.276Z,1.10
2023-04-12T22:40:35.196Z,1.00
2023-04-12T22:43:02.318Z,0.77
2023-04-12T22:45:31.473Z,1.05
2023-04-12T22:47:58.471Z,1.45
2023-04-12T22:50:25.477Z,1.42
2023-04-12T22:52:54.590Z,1.33
2023-04-12T22:55:22.262Z,1.50
2023-04-12T22:57:49.224Z,1.58
2023-04-12T23:00:18.277Z,1.33
2023-04-12T23:02:47.767Z,1.48
2023-04-12T23:05:14.950Z,0.93
2023-04-12T23:07:43.664Z,0.90
2023-04-12T23:10:10.886Z,1.20
2023-04-12T23:12:39.025Z,1.33
2023-04-12T23:15:07.015Z,1.10
2023-04-12T23:17:34.099Z,1.10
2023-04-12T23:20:09.953Z,1.38
2023-04-12T23:22:56.487Z,0.75
2023-04-12T23:25:29.201Z,1.33
2023-04-12T23:27:56.229Z,1.38
2023-04-12T23:30:26.448Z,0.80
2023-04-12T23:32:53.908Z,1.02
2023-04-12T23:35:22.294Z,1.40
2023-04-12T23:37:49.593Z,1.00
2023-04-12T23:40:16.587Z,0.82
2023-04-12T23:42:43.974Z,1.13
2023-04-12T23:45:12.108Z,1.10
2023-04-12T23:47:39.049Z,1.10
2023-04-12T23:50:07.597Z,1.20
2023-04-12T23:52:35.989Z,1.13
2023-04-12T23:55:03.665Z,1.00
2023-04-12T23:57:30.700Z,0.85
2023-04-12T23:59:57.779Z,1.45
